Time;durP1;ratioP1;P1;durP2;ratioP2;P2;SDS_P1;SDS_P2;PMS_P1;PMS_P2;Temp;Humidity;BMP_temperature;BMP_pressure;BME280_temperature;BME280_humidity;BME280_pressure;Samples;Min_cycle;Max_cycle;Signal;HPM_P1;HPM_P2
2022/01/23 00:02:18;;;;;;;;;;;;;;;5.87;32.22;100571.28;4461397;32;34397;-63
2022/01/23 00:04:46;;;;;;;;;;;;;;;6.19;31.44;100570.78;4466301;32;34248;-68
2022/01/23 00:07:15;;;;;;;;;;;;;;;6.28;31.33;100582.81;4460551;32;34060;-65
2022/01/23 00:09:42;;;;;;;;;;;;;;;6.02;31.93;100581.31;4464744;32;33642;-65
2022/01/23 00:12:14;;;;;;;;;;;;;;;5.92;31.89;100579.94;4462713;32;34267;-67
2022/01/23 00:17:34;;;;;;;;;;;;;;;6.06;31.47;100590.84;4461545;32;33025;-65
2022/01/23 00:20:03;;;;;;;;;;;;;;;6.07;31.35;100585.50;4465346;32;34862;-64
2022/01/23 00:22:38;;;;;;;;;;;;;;;5.99;31.59;100589.41;4460005;32;34345;-64
2022/01/23 00:30:41;;;;;;;;;;;;;;;5.62;32.34;100590.91;4462176;32;34245;-66
2022/01/23 00:33:09;;;;;;;;;;;;;;;5.82;31.93;100600.72;4458988;32;35375;-63
2022/01/23 00:35:37;;;;;;;;;;;;;;;5.63;32.33;100594.44;4467906;32;34987;-66
2022/01/23 00:38:04;;;;;;;;;;;;;;;5.91;31.83;100599.47;4466137;31;33588;-64
2022/01/23 00:40:33;;;;;;;;;;;;;;;5.82;31.78;100592.75;4461838;32;33974;-64
2022/01/23 00:43:01;;;;;;;;;;;;;;;5.25;33.15;100587.06;4460250;32;34230;-63
2022/01/23 00:45:33;;;;;;;;;;;;;;;5.29;33.57;100586.00;4463146;32;35175;-63
2022/01/23 00:48:07;;;;;;;;;;;;;;;5.64;32.34;100582.87;4465437;32;34512;-63
2022/01/23 00:50:36;;;;;;;;;;;;;;;5.62;32.35;100593.56;4466711;32;33596;-66
2022/01/23 00:53:04;;;;;;;;;;;;;;;5.05;34.48;100587.84;4466745;32;34385;-66
2022/01/23 00:55:31;;;;;;;;;;;;;;;5.02;33.39;100592.41;4462140;32;33667;-67
2022/01/23 00:57:58;;;;;;;;;;;;;;;4.97;33.94;100591.72;4465047;32;33145;-64
2022/01/23 01:00:26;;;;;;;;;;;;;;;4.41;34.07;100593.75;4465399;32;33709;-65
2022/01/23 01:02:54;;;;;;;;;;;;;;;5.24;32.67;100588.00;4465249;32;34251;-64
2022/01/23 01:05:21;;;;;;;;;;;;;;;5.00;33.46;100587.13;4463230;32;34337;-66
2022/01/23 01:07:49;;;;;;;;;;;;;;;5.45;32.71;100590.72;4461130;32;33820;-64
2022/01/23 01:10:23;;;;;;;;;;;;;;;5.28;32.70;100586.94;4465634;32;34162;-63
2022/01/23 01:12:55;;;;;;;;;;;;;;;5.10;33.19;100585.00;4467220;32;35065;-66
2022/01/23 01:15:31;;;;;;;;;;;;;;;5.47;32.18;100584.41;4466858;32;34741;-64
2022/01/23 01:30:15;;;;;;;;;;;;;;;5.41;32.15;100570.53;4467774;32;33334;-65
2022/01/23 01:31:57;;;;;;;;;;;;;;;4.65;34.39;100562.84;4465371;32;35298;-68
2022/01/23 01:34:35;;;;;;;;;;;;;;;4.86;34.15;100557.62;4465932;32;34280;-69
2022/01/23 01:37:04;;;;;;;;;;;;;;;5.05;33.30;100557.78;4466249;32;34064;-68
2022/01/23 01:39:41;;;;;;;;;;;;;;;5.02;34.24;100563.22;4463178;32;32895;-66
2022/01/23 01:42:09;;;;;;;;;;;;;;;4.72;34.79;100562.59;4460735;32;34194;-66
2022/01/23 01:44:36;;;;;;;;;;;;;;;4.57;35.13;100572.84;4463880;32;35484;-68
2022/01/23 01:47:05;;;;;;;;;;;;;;;4.73;34.93;100556.38;4466345;32;34303;-66
2022/01/23 01:49:33;;;;;;;;;;;;;;;5.00;34.26;100562.41;4457902;32;34454;-66
2022/01/23 01:52:01;;;;;;;;;;;;;;;4.90;34.95;100569.84;4462912;32;34236;-67
2022/01/23 01:54:31;;;;;;;;;;;;;;;4.89;34.47;100579.59;4465879;32;37412;-68
2022/01/23 02:00:10;;;;;;;;;;;;;;;5.14;33.97;100581.31;4463057;32;34782;-67
2022/01/23 02:10:50;;;;;;;;;;;;;;;5.18;33.38;100572.31;4458314;32;33536;-66
2022/01/23 02:13:24;;;;;;;;;;;;;;;4.09;35.45;100567.53;4464583;32;34259;-66
2022/01/23 02:52:13;;;;;;;;;;;;;;;4.09;36.38;100560.44;4437373;32;34865;-67
2022/01/23 02:57:12;;;;;;;;;;;;;;;4.40;36.05;100562.00;4462680;32;35614;-68
2022/01/23 02:59:40;;;;;;;;;;;;;;;5.00;34.56;100562.41;4463813;32;33905;-67
2022/01/23 03:02:30;;;;;;;;;;;;;;;5.09;34.67;100556.75;4465363;32;35199;-67
2022/01/23 03:05:02;;;;;;;;;;;;;;;4.72;34.89;100562.59;4462409;32;33543;-68
2022/01/23 03:08:21;;;;;;;;;;;;;;;4.86;34.88;100560.28;4465940;32;33845;-67
2022/01/23 03:10:24;;;;;;;;;;;;;;;4.62;35.80;100562.06;4456960;32;32872;-67
2022/01/23 03:15:58;;;;;;;;;;;;;;;4.64;35.83;100554.94;4465221;32;31676;-69
2022/01/23 03:27:04;;;;;;;;;;;;;;;4.57;36.75;100566.69;4432732;32;31970;-67
2022/01/23 03:32:28;;;;;;;;;;;;;;;4.56;38.29;100572.91;4463952;32;34339;-65
2022/01/23 03:34:55;;;;;;;;;;;;;;;4.80;37.36;100571.12;4466229;32;33951;-66
2022/01/23 03:37:23;;;;;;;;;;;;;;;4.65;38.24;100575.22;4464451;32;33559;-68
2022/01/23 03:39:50;;;;;;;;;;;;;;;4.80;37.22;100574.66;4465679;32;33988;-68
2022/01/23 03:42:17;;;;;;;;;;;;;;;4.84;36.50;100573.59;4463833;32;34289;-66
2022/01/23 03:45:03;;;;;;;;;;;;;;;4.93;36.36;100571.53;4466666;32;34456;-67
2022/01/23 03:50:00;;;;;;;;;;;;;;;4.33;38.45;100564.00;4466710;32;33110;-67
2022/01/23 03:52:28;;;;;;;;;;;;;;;4.53;37.81;100565.94;4460253;32;34853;-67
2022/01/23 03:54:56;;;;;;;;;;;;;;;4.65;38.18;100568.16;4465567;32;34723;-66
2022/01/23 03:57:23;;;;;;;;;;;;;;;5.01;36.62;100551.75;4465410;32;33086;-68
2022/01/23 03:59:51;;;;;;;;;;;;;;;4.04;39.24;100553.56;4465254;32;32993;-66
2022/01/23 04:02:18;;;;;;;;;;;;;;;4.41;39.14;100551.34;4463224;32;33992;-67
2022/01/23 04:04:46;;;;;;;;;;;;;;;4.29;38.10;100551.78;4466116;32;33938;-68
2022/01/23 04:07:23;;;;;;;;;;;;;;;4.15;38.38;100554.94;4464239;32;33493;-66
2022/01/23 04:09:51;;;;;;;;;;;;;;;4.56;38.69;100555.22;4461274;32;33210;-66
2022/01/23 04:12:35;;;;;;;;;;;;;;;4.96;38.29;100556.34;4463202;32;35361;-68
2022/01/23 04:15:16;;;;;;;;;;;;;;;5.11;37.22;100557.56;4464166;32;34181;-67
2022/01/23 04:34:25;;;;;;;;;;;;;;;3.60;39.07;100564.78;4466371;32;34630;-66
2022/01/23 05:04:19;;;;;;;;;;;;;;;5.31;39.75;100554.97;4464252;32;34299;-67
2022/01/23 05:07:01;;;;;;;;;;;;;;;5.25;36.52;100554.34;4465353;32;34563;-68
2022/01/23 05:09:30;;;;;;;;;;;;;;;4.70;39.82;100554.69;4464479;32;34875;-68
2022/01/23 05:12:03;;;;;;;;;;;;;;;5.28;38.00;100563.06;4466795;32;32857;-67
2022/01/23 05:14:37;;;;;;;;;;;;;;;4.90;38.13;100557.44;4463666;32;35337;-67
2022/01/23 05:17:06;;;;;;;;;;;;;;;5.34;37.57;100559.28;4464452;32;34577;-67
2022/01/23 05:19:35;;;;;;;;;;;;;;;4.89;39.19;100558.38;4465194;32;33325;-71
2022/01/23 05:24:48;;;;;;;;;;;;;;;4.31;41.05;100559.69;4462447;32;34934;-69
2022/01/23 05:27:16;;;;;;;;;;;;;;;5.18;38.24;100569.66;4464908;32;33845;-67
2022/01/23 05:29:44;;;;;;;;;;;;;;;5.00;39.96;100578.31;4463776;32;34048;-67
2022/01/23 05:32:12;;;;;;;;;;;;;;;5.39;37.95;100583.84;4464463;32;32312;-67
2022/01/23 05:34:40;;;;;;;;;;;;;;;4.98;38.60;100589.00;4463526;32;34099;-67
2022/01/23 05:37:08;;;;;;;;;;;;;;;4.46;37.91;100598.88;4461890;32;35121;-67
2022/01/23 05:39:36;;;;;;;;;;;;;;;5.40;37.97;100596.22;4464776;32;34451;-68
2022/01/23 05:42:09;;;;;;;;;;;;;;;5.51;37.38;100601.94;4465699;32;33441;-67
2022/01/23 05:44:41;;;;;;;;;;;;;;;5.34;38.25;100599.13;4465791;32;34695;-65
2022/01/23 05:47:09;;;;;;;;;;;;;;;5.58;36.05;100608.72;4461568;32;34422;-67
2022/01/23 05:49:38;;;;;;;;;;;;;;;5.97;35.69;100609.84;4463773;32;34017;-68
2022/01/23 05:52:05;;;;;;;;;;;;;;;4.94;37.55;100613.91;4465233;32;33362;-68
2022/01/23 05:54:33;;;;;;;;;;;;;;;4.76;38.02;100615.47;4462931;32;32906;-66
2022/01/23 05:57:02;;;;;;;;;;;;;;;5.25;38.60;100621.56;4463282;32;34108;-67
2022/01/23 05:59:31;;;;;;;;;;;;;;;5.52;37.94;100613.44;4459813;32;34785;-73
2022/01/23 06:01:58;;;;;;;;;;;;;;;5.03;38.02;100624.19;4464783;32;33503;-67
2022/01/23 06:04:26;;;;;;;;;;;;;;;5.29;39.13;100627.63;4464118;32;32885;-66
2022/01/23 06:06:56;;;;;;;;;;;;;;;6.10;37.07;100632.34;4464629;32;35263;-67
2022/01/23 06:09:23;;;;;;;;;;;;;;;5.55;36.24;100632.78;4463490;32;32717;-68
2022/01/23 06:11:51;;;;;;;;;;;;;;;5.92;36.27;100644.56;4465901;32;33844;-67
2022/01/23 06:14:19;;;;;;;;;;;;;;;6.25;36.69;100637.00;4462501;32;32981;-67
2022/01/23 06:16:47;;;;;;;;;;;;;;;6.52;34.93;100634.09;4458360;32;35392;-67
2022/01/23 06:19:17;;;;;;;;;;;;;;;7.04;34.16;100637.06;4467226;32;34211;-67
2022/01/23 06:21:46;;;;;;;;;;;;;;;6.94;33.98;100643.75;4467946;32;33350;-68
2022/01/23 06:24:23;;;;;;;;;;;;;;;7.47;33.03;100651.88;4465612;32;35122;-67
2022/01/23 06:26:55;;;;;;;;;;;;;;;7.75;32.96;100650.56;4464337;32;34582;-67
2022/01/23 06:29:23;;;;;;;;;;;;;;;7.85;32.49;100661.66;4464558;32;33889;-67
2022/01/23 06:31:57;;;;;;;;;;;;;;;7.85;32.72;100658.97;4465837;32;33222;-68
2022/01/23 06:34:25;;;;;;;;;;;;;;;7.32;34.04;100655.28;4463054;32;33182;-67
2022/01/23 06:36:54;;;;;;;;;;;;;;;7.27;33.19;100653.78;4465087;32;34231;-67
2022/01/23 06:39:22;;;;;;;;;;;;;;;7.66;32.70;100651.88;4465479;32;34147;-67
2022/01/23 06:41:50;;;;;;;;;;;;;;;7.69;33.65;100650.87;4461748;32;33274;-68
2022/01/23 06:44:18;;;;;;;;;;;;;;;7.99;32.43;100650.28;4464524;32;35377;-68
2022/01/23 06:46:45;;;;;;;;;;;;;;;7.94;33.52;100645.19;4465321;32;35144;-68
2022/01/23 06:49:13;;;;;;;;;;;;;;;8.19;32.11;100636.00;4466177;32;33961;-68
2022/01/23 06:51:42;;;;;;;;;;;;;;;7.94;32.48;100653.19;4466648;32;33149;-68
2022/01/23 06:54:10;;;;;;;;;;;;;;;7.77;33.04;100650.47;4467690;32;35090;-68
2022/01/23 06:56:38;;;;;;;;;;;;;;;7.91;32.65;100654.22;4466083;32;33024;-68
2022/01/23 06:59:05;;;;;;;;;;;;;;;6.77;34.58;100652.47;4465079;32;34946;-68
2022/01/23 07:01:33;;;;;;;;;;;;;;;7.12;33.26;100658.84;4460958;32;36356;-65
2022/01/23 07:04:01;;;;;;;;;;;;;;;7.08;33.73;100646.63;4465536;32;35303;-68
2022/01/23 07:06:29;;;;;;;;;;;;;;;6.20;35.49;100656.75;4459155;32;33810;-68
2022/01/23 07:09:08;;;;;;;;;;;;;;;6.29;36.08;100662.53;4462310;32;34185;-68
2022/01/23 07:11:35;;;;;;;;;;;;;;;6.26;36.35;100662.66;4465150;32;33213;-67
2022/01/23 07:14:03;;;;;;;;;;;;;;;6.16;34.94;100671.06;4463520;32;34855;-67
2022/01/23 07:16:33;;;;;;;;;;;;;;;6.32;35.49;100664.19;4460413;32;33890;-68
2022/01/23 07:19:01;;;;;;;;;;;;;;;6.03;36.64;100666.25;4464638;32;33772;-68
2022/01/23 07:21:29;;;;;;;;;;;;;;;6.30;36.17;100666.06;4468039;32;34179;-67
2022/01/23 07:23:56;;;;;;;;;;;;;;;6.59;36.85;100670.13;4467581;32;34574;-68
2022/01/23 07:26:26;;;;;;;;;;;;;;;5.57;37.43;100675.19;4465166;32;35185;-67
2022/01/23 07:28:56;;;;;;;;;;;;;;;6.71;33.81;100677.56;4468033;32;32851;-67
2022/01/23 07:34:02;;;;;;;;;;;;;;;6.37;34.74;100666.66;4465999;32;34206;-67
2022/01/23 07:36:29;;;;;;;;;;;;;;;5.75;38.48;100674.47;4467994;32;34071;-67
2022/01/23 07:38:57;;;;;;;;;;;;;;;6.14;34.87;100672.94;4463103;32;145435;-67
2022/01/23 07:41:25;;;;;;;;;;;;;;;6.02;38.06;100674.31;4465886;32;32398;-67
2022/01/23 07:43:53;;;;;;;;;;;;;;;5.70;36.43;100662.31;4467620;32;34415;-68
2022/01/23 07:46:22;;;;;;;;;;;;;;;5.32;36.91;100670.84;4468564;32;33945;-67
2022/01/23 07:48:54;;;;;;;;;;;;;;;5.77;38.07;100661.97;4467903;32;34685;-67
2022/01/23 07:51:23;;;;;;;;;;;;;;;5.46;37.53;100665.00;4467762;32;33393;-68
2022/01/23 07:53:51;;;;;;;;;;;;;;;5.74;38.61;100671.88;4468165;32;32830;-67
2022/01/23 07:56:22;;;;;;;;;;;;;;;5.82;38.50;100673.31;4466816;32;33282;-67
2022/01/23 07:58:50;;;;;;;;;;;;;;;5.78;38.49;100678.81;4467732;32;34050;-67
2022/01/23 08:01:18;;;;;;;;;;;;;;;6.33;35.78;100681.03;4467794;32;34210;-67
2022/01/23 08:03:46;;;;;;;;;;;;;;;7.09;35.01;100682.94;4468218;32;35137;-66
2022/01/23 08:06:15;;;;;;;;;;;;;;;6.57;36.60;100682.62;4465803;32;32864;-67
2022/01/23 08:08:44;;;;;;;;;;;;;;;6.20;36.65;100700.12;4467365;32;35140;-67
2022/01/23 08:11:12;;;;;;;;;;;;;;;6.24;37.10;100687.59;4466959;32;32061;-68
2022/01/23 08:13:39;;;;;;;;;;;;;;;6.71;35.08;100682.03;4466739;32;34390;-67
2022/01/23 08:16:07;;;;;;;;;;;;;;;6.54;35.15;100683.59;4467569;32;35153;-67
2022/01/23 08:18:34;;;;;;;;;;;;;;;5.90;37.10;100693.38;4468380;32;32772;-67
2022/01/23 08:21:02;;;;;;;;;;;;;;;6.91;34.90;100690.00;4468117;32;33094;-67
2022/01/23 08:23:29;;;;;;;;;;;;;;;6.44;36.33;100692.06;4468153;32;33863;-67
2022/01/23 08:25:57;;;;;;;;;;;;;;;7.17;35.04;100695.94;4468201;32;34277;-67
2022/01/23 08:28:24;;;;;;;;;;;;;;;8.02;32.61;100691.00;4466997;32;34206;-68
2022/01/23 08:30:51;;;;;;;;;;;;;;;6.30;36.08;100705.94;4466911;32;32918;-68
2022/01/23 08:33:19;;;;;;;;;;;;;;;7.32;33.88;100700.56;4465849;32;32848;-68
2022/01/23 08:35:46;;;;;;;;;;;;;;;7.88;33.86;100698.81;4467917;32;32918;-68
2022/01/23 08:38:14;;;;;;;;;;;;;;;7.22;34.23;100718.75;4465711;32;34427;-67
2022/01/23 08:43:10;;;;;;;;;;;;;;;7.67;32.84;100719.34;4466192;32;34324;-68
2022/01/23 08:45:37;;;;;;;;;;;;;;;6.88;35.35;100726.53;4467476;32;35189;-67
2022/01/23 08:48:05;;;;;;;;;;;;;;;6.35;36.26;100729.66;4466067;32;35696;-67
2022/01/23 08:50:33;;;;;;;;;;;;;;;7.33;33.98;100714.75;4468829;32;34381;-67
2022/01/23 08:53:00;;;;;;;;;;;;;;;7.63;33.38;100713.28;4466216;32;33635;-67
2022/01/23 08:55:28;;;;;;;;;;;;;;;6.87;34.07;100715.03;4463172;32;34169;-67
2022/01/23 08:57:55;;;;;;;;;;;;;;;6.51;34.72;100713.00;4468359;32;33809;-68
2022/01/23 09:00:28;;;;;;;;;;;;;;;7.08;33.59;100707.00;4479850;32;33984;-68
2022/01/23 09:02:55;;;;;;;;;;;;;;;7.58;32.65;100717.12;4466464;32;35121;-67
2022/01/23 09:05:24;;;;;;;;;;;;;;;7.57;32.89;100721.56;4466347;32;35165;-68
2022/01/23 09:07:51;;;;;;;;;;;;;;;7.26;34.23;100721.28;4467433;32;34428;-68
2022/01/23 09:10:25;;;;;;;;;;;;;;;7.72;33.12;100733.31;4467902;32;33303;-67
2022/01/23 09:13:11;;;;;;;;;;;;;;;7.69;33.10;100738.81;4465974;32;34925;-68
2022/01/23 09:15:39;;;;;;;;;;;;;;;8.31;32.07;100742.03;4463321;32;34063;-67
2022/01/23 09:18:06;;;;;;;;;;;;;;;8.29;32.39;100735.94;4468137;32;34969;-68
2022/01/23 09:20:34;;;;;;;;;;;;;;;7.15;34.17;100741.25;4464203;32;33059;-67
2022/01/23 09:23:01;;;;;;;;;;;;;;;8.53;31.41;100739.19;4467366;32;33746;-68
2022/01/23 09:25:29;;;;;;;;;;;;;;;8.47;31.79;100740.34;4466907;32;34307;-68
2022/01/23 09:27:57;;;;;;;;;;;;;;;8.49;31.79;100740.28;4467706;32;35360;-68
2022/01/23 09:30:25;;;;;;;;;;;;;;;8.05;32.02;100738.84;4466256;32;34388;-68
2022/01/23 09:32:52;;;;;;;;;;;;;;;8.68;31.48;100746.44;4467541;32;34132;-68
2022/01/23 09:35:20;;;;;;;;;;;;;;;8.78;31.57;100744.16;4464828;32;34742;-68
2022/01/23 09:37:49;;;;;;;;;;;;;;;9.37;30.44;100741.94;4467798;32;34324;-66
2022/01/23 09:40:16;;;;;;;;;;;;;;;9.35;30.67;100742.03;4466547;32;33339;-66
2022/01/23 09:42:45;;;;;;;;;;;;;;;9.48;30.14;100740.41;4467714;32;34137;-66
2022/01/23 09:45:13;;;;;;;;;;;;;;;9.24;30.83;100731.03;4463844;32;35443;-66
2022/01/23 09:47:41;;;;;;;;;;;;;;;8.80;33.22;100742.28;4467012;32;34179;-65
2022/01/23 09:50:09;;;;;;;;;;;;;;;9.49;30.26;100743.94;4467667;32;34305;-65
2022/01/23 09:52:36;;;;;;;;;;;;;;;9.48;30.54;100743.09;4462698;32;32604;-66
2022/01/23 09:55:10;;;;;;;;;;;;;;;9.66;30.20;100741.22;4466621;32;34370;-65
2022/01/23 09:57:41;;;;;;;;;;;;;;;9.72;29.37;100740.88;4465642;32;33179;-66
2022/01/23 10:00:14;;;;;;;;;;;;;;;9.65;30.02;100742.16;4466062;32;33466;-66
2022/01/23 10:02:41;;;;;;;;;;;;;;;9.69;30.04;100734.81;4461724;32;35004;-65
2022/01/23 10:05:09;;;;;;;;;;;;;;;8.82;32.01;100735.87;4467270;32;34720;-66
2022/01/23 10:07:38;;;;;;;;;;;;;;;9.37;31.46;100736.59;4464976;32;34226;-66
2022/01/23 10:10:15;;;;;;;;;;;;;;;9.14;31.22;100740.50;4466515;32;33376;-67
2022/01/23 10:12:49;;;;;;;;;;;;;;;9.96;29.90;100727.94;4467580;32;35710;-67
2022/01/23 10:15:18;;;;;;;;;;;;;;;9.66;30.37;100721.63;4465887;32;33434;-68
2022/01/23 10:17:46;;;;;;;;;;;;;;;8.98;31.46;100732.44;4467806;32;34271;-68
2022/01/23 10:20:14;;;;;;;;;;;;;;;9.28;31.06;100727.28;4467599;32;33068;-68
2022/01/23 10:22:44;;;;;;;;;;;;;;;8.40;33.47;100730.94;4466517;32;33963;-68
2022/01/23 10:25:13;;;;;;;;;;;;;;;8.51;33.29;100733.09;4466514;32;34433;-68
2022/01/23 10:27:58;;;;;;;;;;;;;;;8.95;31.14;100730.78;4467438;32;35310;-67
2022/01/23 10:30:26;;;;;;;;;;;;;;;9.28;31.15;100727.28;4467663;32;33170;-68
2022/01/23 10:32:58;;;;;;;;;;;;;;;8.91;32.08;100720.34;4465107;32;35717;-68
2022/01/23 10:35:26;;;;;;;;;;;;;;;9.12;31.51;100726.34;4466813;32;34023;-68
2022/01/23 10:37:55;;;;;;;;;;;;;;;9.05;32.17;100723.12;4466382;32;34909;-68
2022/01/23 10:40:23;;;;;;;;;;;;;;;9.54;30.89;100717.84;4466335;32;34295;-68
2022/01/23 10:46:34;;;;;;;;;;;;;;;9.30;31.83;100726.22;4465945;32;33996;-68
2022/01/23 10:48:38;;;;;;;;;;;;;;;9.54;31.27;100721.37;4466753;32;34922;-67
2022/01/23 10:51:12;;;;;;;;;;;;;;;9.02;32.54;100725.97;4465928;32;33234;-67
2022/01/23 10:53:58;;;;;;;;;;;;;;;8.76;33.75;100722.00;4466466;32;34099;-68
2022/01/23 10:56:26;;;;;;;;;;;;;;;8.93;31.85;100716.66;4467311;32;32751;-67
2022/01/23 10:58:58;;;;;;;;;;;;;;;8.60;32.79;100714.81;4469574;32;35052;-67
2022/01/23 11:01:27;;;;;;;;;;;;;;;8.69;33.25;100717.94;4467929;32;31832;-67
2022/01/23 11:04:02;;;;;;;;;;;;;;;8.74;32.41;100714.09;4465580;32;34025;-67
2022/01/23 11:06:29;;;;;;;;;;;;;;;8.84;32.94;100711.81;4462212;32;33930;-68
2022/01/23 11:09:09;;;;;;;;;;;;;;;9.43;31.64;100706.88;4468452;32;35657;-66
2022/01/23 11:11:49;;;;;;;;;;;;;;;9.55;32.02;100709.72;4464532;32;33026;-65
2022/01/23 11:17:23;;;;;;;;;;;;;;;9.22;32.56;100715.13;4469108;32;34182;-66
2022/01/23 11:19:58;;;;;;;;;;;;;;;9.66;31.53;100716.28;4466876;32;34624;-66
2022/01/23 11:22:29;;;;;;;;;;;;;;;9.56;32.51;100721.28;4467082;32;31916;-65
2022/01/23 11:25:02;;;;;;;;;;;;;;;10.24;29.86;100723.69;4467571;32;33961;-66
2022/01/23 11:27:34;;;;;;;;;;;;;;;10.31;29.60;100725.09;4466516;32;32613;-66
2022/01/23 11:30:08;;;;;;;;;;;;;;;10.45;29.81;100727.81;4462310;32;34312;-66
2022/01/23 11:32:38;;;;;;;;;;;;;;;9.74;31.44;100719.41;4467875;32;32047;-66
2022/01/23 11:35:09;;;;;;;;;;;;;;;10.08;30.25;100721.06;4465981;32;34156;-66
2022/01/23 11:37:44;;;;;;;;;;;;;;;9.83;31.18;100718.03;4467760;32;34381;-66
2022/01/23 11:53:54;;;;;;;;;;;;;;;10.30;30.75;100718.00;4468872;32;33570;-66
2022/01/23 11:56:26;;;;;;;;;;;;;;;10.07;31.45;100715.78;4467705;32;34695;-66
2022/01/23 11:58:55;;;;;;;;;;;;;;;10.50;30.44;100722.22;4467729;32;34169;-65
2022/01/23 12:01:26;;;;;;;;;;;;;;;9.90;31.54;100714.94;4465339;32;34405;-66
2022/01/23 12:04:06;;;;;;;;;;;;;;;10.22;31.78;100706.88;4467424;32;33105;-65
2022/01/23 12:06:34;;;;;;;;;;;;;;;10.71;29.70;100704.84;4467475;32;32969;-66
2022/01/23 12:09:11;;;;;;;;;;;;;;;9.93;31.26;100705.88;4465767;32;32840;-65
2022/01/23 12:11:53;;;;;;;;;;;;;;;10.69;29.97;100692.53;4463688;32;34531;-66
2022/01/23 12:17:12;;;;;;;;;;;;;;;10.17;30.95;100695.56;4465674;32;34601;-65
2022/01/23 12:19:39;;;;;;;;;;;;;;;10.64;30.55;100697.28;4467242;32;34980;-65
2022/01/23 12:22:23;;;;;;;;;;;;;;;11.10;29.28;100697.16;4465531;32;35102;-66
2022/01/23 12:24:52;;;;;;;;;;;;;;;11.06;30.08;100703.69;4464369;32;33166;-66
2022/01/23 12:27:26;;;;;;;;;;;;;;;10.13;31.21;100694.03;4469122;32;35340;-66
2022/01/23 12:30:10;;;;;;;;;;;;;;;10.57;30.78;100690.59;4467276;32;34431;-66
2022/01/23 12:32:37;;;;;;;;;;;;;;;10.25;31.10;100691.50;4461662;32;32412;-66
2022/01/23 12:35:06;;;;;;;;;;;;;;;11.09;29.07;100682.91;4464662;32;33668;-66
2022/01/23 12:37:52;;;;;;;;;;;;;;;10.88;29.36;100684.22;4467363;32;33756;-66
2022/01/23 12:40:22;;;;;;;;;;;;;;;11.26;29.32;100692.56;4464793;32;34172;-66
2022/01/23 12:43:03;;;;;;;;;;;;;;;10.97;29.43;100686.34;4463226;32;34260;-66
2022/01/23 12:45:46;;;;;;;;;;;;;;;11.09;29.32;100687.41;4464042;32;33159;-66
2022/01/23 12:48:26;;;;;;;;;;;;;;;11.75;28.42;100685.91;4463355;32;34046;-66
2022/01/23 12:50:55;;;;;;;;;;;;;;;11.45;28.42;100678.88;4468690;32;34320;-66
2022/01/23 12:53:34;;;;;;;;;;;;;;;10.55;30.62;100679.09;4466118;32;34109;-65
2022/01/23 12:56:07;;;;;;;;;;;;;;;11.73;28.10;100677.13;4455353;32;32851;-65
2022/01/23 12:58:35;;;;;;;;;;;;;;;10.91;28.89;100681.34;4473039;31;34317;-65
2022/01/23 13:01:08;;;;;;;;;;;;;;;10.56;28.98;100676.34;4460883;32;34433;-66
2022/01/23 13:03:37;;;;;;;;;;;;;;;11.05;28.57;100673.34;4466780;32;35400;-66
2022/01/23 13:06:08;;;;;;;;;;;;;;;11.82;26.74;100671.16;4464673;32;33418;-65
2022/01/23 13:08:45;;;;;;;;;;;;;;;11.29;27.61;100678.97;4472130;32;34413;-66
2022/01/23 13:11:45;;;;;;;;;;;;;;;11.58;27.94;100677.13;4466554;32;33760;-66
2022/01/23 13:14:03;;;;;;;;;;;;;;;10.37;29.93;100681.94;4463396;32;32782;-65
2022/01/23 13:16:57;;;;;;;;;;;;;;;11.81;26.73;100675.66;4460772;32;33401;-66
2022/01/23 13:19:47;;;;;;;;;;;;;;;11.64;26.84;100679.41;4463784;32;33791;-65
2022/01/23 13:30:48;;;;;;;;;;;;;;;12.49;25.77;100679.25;4462969;32;34820;-66
2022/01/23 13:33:21;;;;;;;;;;;;;;;12.20;26.48;100679.41;4460258;32;32639;-66
2022/01/23 13:35:53;;;;;;;;;;;;;;;11.23;28.12;100684.72;4464120;32;34459;-66
2022/01/23 13:38:26;;;;;;;;;;;;;;;12.38;27.46;100671.06;4459849;32;31954;-66
2022/01/23 13:41:04;;;;;;;;;;;;;;;12.51;26.05;100683.53;4466115;32;35066;-65
2022/01/23 13:52:10;;;;;;;;;;;;;;;12.22;25.72;100695.38;4459460;32;33962;-66
2022/01/23 14:02:34;;;;;;;;;;;;;;;11.47;29.02;100692.19;4456739;32;34704;-65
2022/01/23 14:05:13;;;;;;;;;;;;;;;11.69;26.97;100689.00;4465387;32;34096;-66
2022/01/23 14:07:42;;;;;;;;;;;;;;;11.95;27.52;100690.87;4461629;32;35541;-66
2022/01/23 14:10:11;;;;;;;;;;;;;;;11.86;27.18;100686.97;4463498;32;33026;-66
2022/01/23 14:12:39;;;;;;;;;;;;;;;11.40;27.35;100681.88;4460892;32;34052;-65
2022/01/23 14:15:21;;;;;;;;;;;;;;;11.24;27.76;100680.25;4466286;32;34293;-66
2022/01/23 14:17:55;;;;;;;;;;;;;;;11.52;26.95;100682.03;4466773;32;34603;-65
2022/01/23 14:20:24;;;;;;;;;;;;;;;10.68;29.43;100686.28;4466008;32;33605;-67
2022/01/23 14:22:53;;;;;;;;;;;;;;;11.25;27.84;100690.84;4465170;32;34308;-67
2022/01/23 14:25:21;;;;;;;;;;;;;;;10.08;29.49;100685.38;4464081;32;34075;-66
2022/01/23 14:28:01;;;;;;;;;;;;;;;11.24;28.28;100683.78;4468571;32;33586;-67
2022/01/23 14:30:29;;;;;;;;;;;;;;;10.90;29.37;100691.22;4465716;32;34253;-66
2022/01/23 14:33:05;;;;;;;;;;;;;;;10.44;29.65;100688.63;4470609;32;34372;-65
2022/01/23 14:35:34;;;;;;;;;;;;;;;10.93;29.05;100679.47;4463979;32;32860;-65
2022/01/23 14:38:08;;;;;;;;;;;;;;;9.49;32.21;100694.03;4466459;32;34296;-66
2022/01/23 14:40:35;;;;;;;;;;;;;;;9.42;30.96;100703.34;4463100;32;34422;-65
2022/01/23 14:43:06;;;;;;;;;;;;;;;10.47;29.30;100706.34;4464447;32;34084;-65
2022/01/23 14:45:35;;;;;;;;;;;;;;;10.30;29.68;100712.66;4467600;32;35463;-66
2022/01/23 14:48:04;;;;;;;;;;;;;;;10.22;30.48;100706.88;4467400;32;34933;-65
2022/01/23 14:50:33;;;;;;;;;;;;;;;10.68;29.35;100705.03;4466147;32;34316;-64
2022/01/23 14:53:15;;;;;;;;;;;;;;;10.95;29.22;100712.38;4458714;32;34295;-65
2022/01/23 14:55:44;;;;;;;;;;;;;;;11.16;27.80;100729.81;4462285;32;34243;-65
2022/01/23 14:58:13;;;;;;;;;;;;;;;10.87;28.21;100725.37;4464711;32;34200;-65
2022/01/23 15:00:41;;;;;;;;;;;;;;;11.61;26.96;100729.72;4464653;32;33141;-65
2022/01/23 15:03:08;;;;;;;;;;;;;;;10.66;28.16;100736.41;4467580;32;33629;-65
2022/01/23 15:05:38;;;;;;;;;;;;;;;10.91;28.69;100743.84;4464457;32;36181;-65
2022/01/23 15:08:08;;;;;;;;;;;;;;;11.01;28.32;100736.13;4463496;32;36138;-65
2022/01/23 15:10:36;;;;;;;;;;;;;;;10.96;28.51;100746.25;4462812;32;33987;-66
2022/01/23 15:13:04;;;;;;;;;;;;;;;10.74;28.53;100754.69;4461280;32;32727;-66
2022/01/23 15:15:32;;;;;;;;;;;;;;;10.79;29.02;100743.72;4464663;31;34487;-66
2022/01/23 15:18:00;;;;;;;;;;;;;;;10.58;30.19;100738.69;4457683;32;34940;-66
2022/01/23 15:20:28;;;;;;;;;;;;;;;10.81;28.52;100745.34;4464235;32;33405;-65
2022/01/23 15:22:55;;;;;;;;;;;;;;;10.62;29.44;100756.28;4460488;32;34330;-65
2022/01/23 15:25:24;;;;;;;;;;;;;;;11.22;28.06;100759.88;4463493;32;34208;-65
2022/01/23 15:27:52;;;;;;;;;;;;;;;10.93;28.53;100760.69;4459331;32;35134;-66
2022/01/23 15:30:21;;;;;;;;;;;;;;;11.44;27.54;100760.25;4464179;32;34109;-66
2022/01/23 15:32:51;;;;;;;;;;;;;;;11.67;27.38;100758.81;4468301;32;34371;-66
2022/01/23 15:35:18;;;;;;;;;;;;;;;11.66;27.14;100762.47;4466154;32;34102;-65
2022/01/23 15:37:46;;;;;;;;;;;;;;;11.75;26.69;100752.94;4464197;32;34749;-65
2022/01/23 15:40:21;;;;;;;;;;;;;;;11.50;26.70;100753.66;4466395;32;33323;-66
2022/01/23 15:42:51;;;;;;;;;;;;;;;11.52;26.48;100754.41;4467162;32;34327;-66
2022/01/23 15:45:20;;;;;;;;;;;;;;;11.57;27.03;100755.00;4464693;32;34163;-66
2022/01/23 15:47:48;;;;;;;;;;;;;;;11.43;26.81;100763.91;4467663;32;35166;-66
2022/01/23 15:50:17;;;;;;;;;;;;;;;11.23;27.17;100767.78;4462152;32;33363;-66
2022/01/23 15:52:45;;;;;;;;;;;;;;;11.12;28.60;100776.50;4465806;32;35145;-67
2022/01/23 15:55:13;;;;;;;;;;;;;;;11.19;26.62;100771.63;4464321;32;35459;-66
2022/01/23 15:57:41;;;;;;;;;;;;;;;11.06;26.93;100781.38;4464835;32;35200;-66
2022/01/23 16:00:10;;;;;;;;;;;;;;;10.96;26.87;100778.38;4465985;32;34767;-66
2022/01/23 16:02:38;;;;;;;;;;;;;;;10.63;27.93;100779.44;4467629;32;34433;-66
2022/01/23 16:05:06;;;;;;;;;;;;;;;10.72;27.35;100780.69;4466178;32;34436;-67
2022/01/23 16:07:34;;;;;;;;;;;;;;;10.75;27.74;100787.69;4466575;32;34309;-66